• Join FlightAware (Why Join?)
  • Login
  • US Flag 
01:40PM EDT


 

Airport Tracker/Info


-or-


 

Live Flight TrackerFlight Track Log ✈ FLG3861 ✈ 04-Apr-2014 ✈ KDTW - KBGM

Flight Track Log - Related Links

Times and Time Zones

All times are in EDT time to prevent confusion due to time zone crossing. See the FLG3861 flight status page for this flight to view local times or setup timezone preferences in your user account.

Time Position Orientation Groundspeed Altitude Reporting Facility
EDT Latitude Longitude Course Direction KTS MPH feet Rate Location/Type
10:09PM 42.2008 -83.3522 163° South 149 171 1,600  Level Cleveland Center
10:10PM 42.1300 -83.3225 163° South 236 272 4,600 1,920 Climbing Cleveland Center
10:11PM 42.1208 -83.2522 100° East 276 318 5,700 2,280 Climbing Cleveland Center
10:12PM 42.1589 -83.1475 64° Northeast 309 356 8,600 2,220 Climbing Cleveland Center
10:13PM 42.1950 -83.0347 67° East 330 380 10,300 1,260 Climbing Cleveland Center
10:14PM 42.2344 -82.9033 68° East 378 435 11,300 1,020 Climbing Cleveland Center
10:15PM 42.2786 -82.7575 68° East 418 481 12,500 1,380 Climbing Cleveland Center
10:16PM 42.3250 -82.6039 68° East 440 506 14,200 1,740 Climbing Cleveland Center
10:17PM 42.3664 -82.4119 74° East 450 518 16,100 1,380 Climbing Cleveland Center
10:18PM 42.3611 -82.2422 92° East 452 520 17,100 1,080 Climbing Cleveland Center
10:19PM 42.3547 -82.0831 93° East 459 528 18,400 1,080 Climbing Cleveland Center
10:20PM 42.3464 -81.9058 94° East 463 533 19,400 960 Climbing Cleveland Center
10:21PM 42.3383 -81.7258 93° East 468 539 20,400 1,020 Climbing Cleveland Center
10:22PM 42.3289 -81.5175 93° East 469 540 21,500 720 Climbing Cleveland Center
10:23PM 42.3200 -81.3347 94° East 477 549 22,000 480 Climbing Cleveland Center
10:24PM 42.3106 -81.1489 94° East 485 558 22,500 480 Climbing Cleveland Center
10:25PM 42.3003 -80.9628 94° East 487 560 23,000 540 Climbing Cleveland Center
10:26PM 42.2906 -80.7756 94° East 493 567 23,700 540 Climbing Cleveland Center
10:27PM 42.2814 -80.5914 94° East 490 564 24,200 480 Climbing Cleveland Center
10:28PM 42.2706 -80.4053 94° East 490 564 24,700 480 Climbing Cleveland Center
10:29PM 42.2603 -80.2206 94° East 490 564 25,300 540 Climbing Cleveland Center
10:30PM 42.2489 -80.0353 95° East 491 565 25,800 480 Climbing Cleveland Center
10:31PM 42.2358 -79.8375 95° East 484 557 26,300 480 Climbing Cleveland Center
10:32PM 42.2242 -79.6578 95° East 485 558 26,800 300 Climbing Cleveland Center
10:33PM 42.2122 -79.4756 95° East 488 562 27,000 60 Climbing Cleveland Center
10:34PM 42.2000 -79.2906 95° East 494 568 27,000  Level Cleveland Center
10:35PM 42.1894 -79.1042 94° East 497 572 27,000  Level Cleveland Center
10:36PM 42.1931 -78.8839 89° East 516 594 27,000  Level Cleveland Center
10:37PM 42.1969 -78.6933 88° East 515 593 27,000  Level Cleveland Center
10:38PM 42.1997 -78.5047 89° East 512 589 27,000  Level Cleveland Center
10:39PM 42.2022 -78.3142 89° East 511 588 27,000 -300 Level Cleveland Center
10:40PM 42.2047 -78.1272 89° East 508 585 26,500 -1,080 Descending Cleveland Center
10:41PM 42.2067 -77.9372 89° East 509 586 24,900 -1,560 Descending Cleveland Center
10:42PM 42.2083 -77.7456 89° East 515 593 23,400 -1,620 Descending Cleveland Center
10:43PM 42.2092 -77.5647 90° East 494 568 21,600 -1,920 Descending Cleveland Center
10:45PM 42.2097 -77.3536 90° East 479 551 19,500 -2,040 Descending Cleveland Center
10:46PM 42.2108 -77.1808 89° East 468 539 17,500 -2,160 Descending Cleveland Center
10:47PM 42.2111 -77.0167 90° East 446 513 15,200 -2,520 Descending Cleveland Center
10:48PM 42.2103 -76.8586 90° East 426 490 12,400 -2,280 Descending Cleveland Center
10:49PM 42.2108 -76.7006 90° East 428 493 10,600 -1,680 Descending Cleveland Center
10:50PM 42.2278 -76.5847 79° East 337 388 9,100 -1,800 Descending Cleveland Center
10:51PM 42.2608 -76.4733 68° East 324 373 7,000 -2,160 Descending Cleveland Center
10:52PM 42.2961 -76.3514 69° East 315 362 4,800 -1,860 Descending Cleveland Center
10:53PM 42.3311 -76.2503 65° Northeast 304 350 3,300 -540 Descending Cleveland Center
10:55PM 42.3489 -76.1069 80° East 203 234 3,300  Level New York Center
10:56PM 42.3069 -76.0700 147° Southeast 163 188 3,300 -120 Level New York Center
10:57PM 42.2728 -76.0392 146° Southeast 157 181 3,100 -480 Descending New York Center
10:58PM 42.2469 -76.0147 145° Southeast 137 158 2,400 -540 Descending New York Center
10:59PM 42.2192 -75.9844 141° Southeast 137 158 2,100 -360 Descending New York Center